Time;durP1;ratioP1;P1;durP2;ratioP2;P2;SDS_P1;SDS_P2;PMS_P1;PMS_P2;Temp;Humidity;BMP_temperature;BMP_pressure;BME280_temperature;BME280_humidity;BME280_pressure;Samples;Min_cycle;Max_cycle;Signal;HPM_P1;HPM_P2
2022/10/08 00:08:59;;;;;;;12.32;2.20;;;;;;;13.19;85.49;101239.03;20962150;28;20044;-64
2022/10/08 00:19:21;;;;;;;8.68;1.83;;;;;;;13.14;85.21;101225.41;20956942;28;20049;-64
2022/10/08 00:29:43;;;;;;;11.40;2.30;;;;;;;13.07;86.41;101211.09;20956853;28;20060;-64
2022/10/08 00:40:05;;;;;;;8.07;1.92;;;;;;;13.34;85.93;101211.78;20951907;28;20048;-64
2022/10/08 00:50:34;;;;;;;10.10;2.00;;;;;;;13.11;86.64;101204.69;20956009;28;20040;-65
2022/10/08 01:00:56;;;;;;;13.75;2.20;;;;;;;13.23;86.94;101205.63;20949884;28;20504;-64
2022/10/08 01:11:55;;;;;;;10.82;1.90;;;;;;;13.21;86.87;101203.13;20970552;28;20554;-64
2022/10/08 01:22:51;;;;;;;11.73;2.25;;;;;;;13.17;87.77;101196.41;20984614;28;20052;-64
2022/10/08 01:33:21;;;;;;;11.30;2.35;;;;;;;13.32;88.02;101195.34;20971825;28;20049;-65
2022/10/08 01:43:53;;;;;;;12.60;1.90;;;;;;;13.42;88.60;101196.38;20994631;28;20060;-64
2022/10/08 01:54:16;;;;;;;12.18;2.17;;;;;;;13.45;89.49;101196.16;20974508;28;20048;-64
2022/10/08 02:04:38;;;;;;;10.45;2.15;;;;;;;13.60;89.10;101171.50;20982589;28;20044;-64
2022/10/08 02:15:02;;;;;;;13.35;2.15;;;;;;;13.73;89.19;101188.88;20955791;28;20154;-64
2022/10/08 02:25:57;;;;;;;7.68;2.00;;;;;;;13.60;91.93;101200.31;20964149;28;20055;-64
2022/10/08 02:36:24;;;;;;;13.27;2.20;;;;;;;13.56;93.95;101188.38;20964840;28;20056;-64
2022/10/08 02:46:50;;;;;;;12.63;2.08;;;;;;;13.51;94.20;101177.41;20964741;28;20045;-64
2022/10/08 02:57:17;;;;;;;11.60;2.10;;;;;;;13.53;93.90;101192.06;20968575;28;20095;-64
2022/10/08 03:07:38;;;;;;;12.45;2.15;;;;;;;13.45;94.43;101201.41;20970903;28;20061;-64
2022/10/08 03:18:05;;;;;;;6.13;1.80;;;;;;;13.33;95.41;101199.66;20960495;28;20048;-64
2022/10/08 03:28:26;;;;;;;5.18;1.65;;;;;;;13.36;96.08;101207.28;20953284;28;20053;-64
2022/10/08 03:38:48;;;;;;;9.52;1.73;;;;;;;13.26;96.74;101214.09;20960371;28;20131;-64
2022/10/08 03:49:10;;;;;;;7.25;1.30;;;;;;;13.22;97.02;101215.28;20952464;28;20497;-64
2022/10/08 03:59:31;;;;;;;6.15;1.38;;;;;;;13.31;96.95;101217.25;20957844;28;20060;-64
2022/10/08 04:09:53;;;;;;;6.95;1.48;;;;;;;13.10;98.61;101247.50;20961468;28;20044;-64
2022/10/08 04:20:14;;;;;;;7.50;1.55;;;;;;;13.04;100.00;101247.09;20957752;28;20048;-64
2022/10/08 04:30:36;;;;;;;6.63;2.10;;;;;;;12.84;100.00;101260.66;20959495;28;20094;-64
2022/10/08 04:41:05;;;;;;;5.25;1.60;;;;;;;12.75;100.00;101249.03;20958160;28;20052;-64
2022/10/08 04:51:27;;;;;;;5.75;1.50;;;;;;;12.56;100.00;101266.88;20951089;28;20651;-64
2022/10/08 05:01:48;;;;;;;;;;;;;;;12.44;100.00;101271.22;20958970;28;20048;-65
2022/10/08 05:12:10;;;;;;;7.40;1.60;;;;;;;12.26;100.00;101265.41;20941996;28;19955;-64
2022/10/08 05:22:32;;;;;;;5.43;1.60;;;;;;;12.28;100.00;101271.41;20951240;28;20053;-64
2022/10/08 05:32:53;;;;;;;8.15;1.80;;;;;;;12.15;100.00;101277.50;20977379;28;20086;-64
2022/10/08 05:43:15;;;;;;;6.83;1.93;;;;;;;11.93;100.00;101285.03;20950097;28;20056;-64
2022/10/08 05:53:38;;;;;;;12.07;2.42;;;;;;;11.86;100.00;101294.16;20937098;28;20048;-64
2022/10/08 06:04:06;;;;;;;9.07;2.20;;;;;;;11.92;100.00;101304.25;20964018;28;20048;-62
2022/10/08 06:14:29;;;;;;;10.40;2.60;;;;;;;11.90;100.00;101322.63;20977328;28;20048;-63
2022/10/08 06:24:51;;;;;;;12.17;3.20;;;;;;;11.84;100.00;101343.06;20967174;28;20049;-64
2022/10/08 06:35:12;;;;;;;6.93;2.67;;;;;;;11.98;100.00;101349.13;20999878;28;20044;-65
2022/10/08 06:45:38;;;;;;;10.83;3.70;;;;;;;11.95;100.00;101364.13;20979965;28;20349;-62
2022/10/08 06:56:02;;;;;;;11.18;3.42;;;;;;;12.11;100.00;101373.56;20967463;28;20267;-65
2022/10/08 07:06:24;;;;;;;10.35;2.75;;;;;;;12.28;100.00;101386.41;20959175;28;20105;-62
2022/10/08 07:16:46;;;;;;;13.18;2.95;;;;;;;12.48;100.00;101408.69;20947461;28;20512;-63
2022/10/08 07:27:07;;;;;;;13.18;2.92;;;;;;;12.73;100.00;101420.94;20948711;28;20043;-63
2022/10/08 07:37:29;;;;;;;10.83;2.90;;;;;;;13.02;100.00;101438.25;20963766;28;20105;-63
2022/10/08 07:47:50;;;;;;;10.67;2.40;;;;;;;13.23;100.00;101452.59;20943225;28;20106;-63
2022/10/08 07:58:12;;;;;;;12.03;2.17;;;;;;;13.48;100.00;101468.34;20959748;28;20283;-63
2022/10/08 08:08:36;;;;;;;9.00;1.83;;;;;;;13.75;98.72;101487.47;20961747;28;20098;-66
2022/10/08 08:18:59;;;;;;;8.40;1.45;;;;;;;14.05;94.69;101501.97;20960469;28;20044;-63
2022/10/08 08:29:20;;;;;;;10.98;1.30;;;;;;;14.17;91.66;101516.06;20956442;28;20115;-63
2022/10/08 08:39:42;;;;;;;13.35;1.95;;;;;;;14.07;91.67;101528.91;20955096;28;20114;-63
2022/10/08 08:50:24;;;;;;;8.13;1.70;;;;;;;14.36;91.48;101532.22;20953699;28;20095;-63
2022/10/08 09:00:55;;;;;;;9.45;1.40;;;;;;;14.64;88.31;101549.41;20941531;28;20105;-64
2022/10/08 09:11:19;;;;;;;12.23;1.60;;;;;;;14.54;88.52;101553.63;20956473;28;20051;-63
2022/10/08 09:21:41;;;;;;;7.03;1.25;;;;;;;14.45;84.15;101585.72;20952571;28;20056;-62
2022/10/08 09:32:02;;;;;;;9.15;1.13;;;;;;;14.44;83.70;101577.97;20958655;28;20048;-63
2022/10/08 09:42:24;;;;;;;3.30;1.00;;;;;;;14.21;83.73;101575.22;20969107;28;20117;-63
2022/10/08 09:52:49;;;;;;;10.93;1.60;;;;;;;14.08;84.90;101587.47;20967349;28;20110;-63
2022/10/08 10:03:18;;;;;;;7.13;1.40;;;;;;;14.00;85.28;101608.09;20962817;28;20045;-62
2022/10/08 10:13:41;;;;;;;;;;;;;;;13.45;98.22;101599.50;20964057;28;20041;-63
2022/10/08 10:24:05;;;;;;;5.57;0.82;;;;;;;13.25;100.00;101623.50;20967087;28;20426;-62
2022/10/08 10:34:29;;;;;;;5.65;0.93;;;;;;;13.51;92.08;101646.28;20961652;28;20036;-63
2022/10/08 10:44:51;;;;;;;4.47;0.80;;;;;;;13.99;85.76;101633.47;20965451;28;20107;-62
2022/10/08 10:55:12;;;;;;;;;;;;;;;14.14;82.92;101647.38;20961099;28;20439;-62
2022/10/08 11:05:36;;;;;;;4.03;0.90;;;;;;;14.38;81.67;101645.75;20959955;28;19924;-62
2022/10/08 11:16:30;;;;;;;4.60;0.82;;;;;;;14.85;78.44;101637.16;20965356;28;20556;-61
2022/10/08 11:27:18;;;;;;;5.78;1.30;;;;;;;15.09;73.17;101645.97;20963583;28;20049;-61
2022/10/08 11:37:44;;;;;;;6.47;0.80;;;;;;;15.46;73.07;101634.53;20911273;28;20451;-60
2022/10/08 11:48:24;;;;;;;6.88;1.00;;;;;;;15.87;72.00;101643.75;20948307;28;20045;-61
2022/10/08 11:58:52;;;;;;;7.40;0.80;;;;;;;15.51;71.45;101690.25;20937061;28;20106;-62
2022/10/08 12:09:24;;;;;;;7.50;0.90;;;;;;;15.20;72.74;101701.19;20953403;28;20032;-61
2022/10/08 12:20:17;;;;;;;6.03;1.00;;;;;;;15.18;73.01;101697.84;20942883;28;20041;-62
2022/10/08 12:30:54;;;;;;;5.97;0.98;;;;;;;15.42;71.37;101690.91;20940974;28;20295;-61
2022/10/08 12:41:59;;;;;;;7.88;1.40;;;;;;;15.89;73.30;101680.44;20937625;28;20048;-62
2022/10/08 12:52:22;;;;;;;6.57;0.85;;;;;;;15.43;79.53;101696.06;20948303;28;20053;-62
2022/10/08 13:02:56;;;;;;;7.22;1.10;;;;;;;15.08;81.18;101691.56;20941297;28;20044;-62
2022/10/08 13:13:39;;;;;;;7.40;1.10;;;;;;;15.22;79.01;101706.34;20957155;28;20635;-62
2022/10/08 13:24:10;;;;;;;4.70;1.00;;;;;;;15.49;72.75;101718.44;20951895;28;20057;-61
2022/10/08 13:34:38;;;;;;;4.87;1.10;;;;;;;15.89;68.61;101727.78;20947141;28;20049;-61
2022/10/08 13:45:02;;;;;;;4.20;0.90;;;;;;;15.46;66.74;101734.41;20947521;28;20122;-63
2022/10/08 13:55:32;;;;;;;5.85;0.90;;;;;;;15.60;63.26;101742.16;20972834;28;20070;-61
2022/10/08 14:05:54;;;;;;;2.23;0.60;;;;;;;15.62;57.23;101762.16;20941832;28;20064;-62
2022/10/08 14:16:15;;;;;;;6.63;0.98;;;;;;;15.77;62.09;101770.72;20948496;28;20100;-62
2022/10/08 14:26:37;;;;;;;;;;;;;;;15.73;63.95;101790.28;20968216;28;20048;-62
2022/10/08 14:36:58;;;;;;;8.10;0.90;;;;;;;15.35;64.72;101800.00;20961531;28;19975;-62
2022/10/08 14:47:20;;;;;;;6.15;0.98;;;;;;;15.33;69.42;101811.59;20955480;28;20044;-62
2022/10/08 14:57:42;;;;;;;;;;;;;;;14.91;71.27;101819.69;20986965;28;20063;-62
2022/10/08 15:08:04;;;;;;;7.00;1.05;;;;;;;14.29;80.81;101840.44;20935553;28;19932;-62
2022/10/08 15:18:29;;;;;;;5.38;0.98;;;;;;;14.41;85.61;101851.03;20956684;28;20567;-59
2022/10/08 15:28:52;;;;;;;6.45;1.08;;;;;;;14.38;80.92;101863.50;20953953;28;20477;-62
2022/10/08 15:39:16;;;;;;;8.48;1.23;;;;;;;14.29;79.98;101861.44;20956690;28;20040;-63
2022/10/08 15:49:40;;;;;;;5.00;1.00;;;;;;;14.16;80.68;101871.88;20949937;28;20048;-63
2022/10/08 16:00:02;;;;;;;10.43;1.52;;;;;;;14.24;81.92;101900.25;20953079;28;20099;-63
2022/10/08 16:10:24;;;;;;;9.65;1.50;;;;;;;14.00;81.75;101925.31;20945917;28;20524;-62
2022/10/08 16:20:45;;;;;;;;;;;;;;;13.88;80.47;101928.69;20957439;28;20452;-63
2022/10/08 16:31:12;;;;;;;7.88;1.30;;;;;;;13.75;82.34;101939.06;20947493;28;19920;-63
2022/10/08 16:41:36;;;;;;;7.22;1.27;;;;;;;13.56;84.25;101959.44;20953709;28;20106;-62
2022/10/08 16:52:03;;;;;;;6.85;1.00;;;;;;;13.35;86.31;101980.81;20943695;28;20698;-62
2022/10/08 17:02:25;;;;;;;12.70;1.45;;;;;;;13.29;85.73;101986.38;20957531;28;20040;-62
2022/10/08 17:12:47;;;;;;;14.43;2.97;;;;;;;13.26;86.07;101990.97;20955467;28;20041;-63
2022/10/08 17:23:10;;;;;;;6.70;2.00;;;;;;;13.13;87.79;102006.50;20950956;28;20045;-63
2022/10/08 17:33:32;;;;;;;10.82;2.10;;;;;;;13.04;88.36;102017.50;20938970;28;20045;-63
2022/10/08 17:44:00;;;;;;;6.88;1.45;;;;;;;12.94;88.77;102028.56;20942387;28;20060;-63
2022/10/08 17:54:21;;;;;;;11.98;2.20;;;;;;;12.86;89.79;102047.28;20949374;28;20048;-63
2022/10/08 18:04:43;;;;;;;7.25;1.77;;;;;;;12.84;90.32;102061.38;20958280;28;20110;-62
2022/10/08 18:15:05;;;;;;;7.78;2.30;;;;;;;12.78;91.21;102061.69;20956160;28;20047;-62
2022/10/08 18:25:26;;;;;;;8.73;1.73;;;;;;;12.66;92.03;102078.06;20952163;28;20052;-63
2022/10/08 18:35:48;;;;;;;19.67;3.40;;;;;;;12.60;92.08;102088.84;20956315;28;20056;-60
2022/10/08 18:46:10;;;;;;;12.15;3.03;;;;;;;12.60;93.55;102099.31;20954018;28;20068;-63
2022/10/08 18:56:34;;;;;;;5.50;2.00;;;;;;;12.33;92.64;102107.75;20968863;28;20045;-62
2022/10/08 19:06:55;;;;;;;13.07;3.85;;;;;;;12.29;93.12;102124.50;20953253;28;20404;-63
2022/10/08 19:17:17;;;;;;;8.52;1.90;;;;;;;12.10;93.45;102139.44;20960520;28;20091;-63
2022/10/08 19:27:38;;;;;;;7.90;1.92;;;;;;;12.32;94.54;102142.66;20949994;28;20602;-63
2022/10/08 19:38:00;;;;;;;9.97;2.60;;;;;;;11.86;94.26;102156.31;20955628;28;20056;-63
2022/10/08 19:48:21;;;;;;;9.80;2.27;;;;;;;11.87;95.94;102166.69;20951348;28;20746;-63
2022/10/08 19:58:44;;;;;;;8.17;2.07;;;;;;;11.53;96.26;102171.00;20951420;28;20119;-63
2022/10/08 20:09:11;;;;;;;10.88;2.25;;;;;;;11.66;95.74;102178.19;20939269;28;20076;-61
2022/10/08 20:19:32;;;;;;;4.97;1.63;;;;;;;11.52;97.60;102187.53;20944054;28;20786;-63
2022/10/08 20:29:54;;;;;;;10.57;2.03;;;;;;;11.19;98.12;102199.56;20939663;28;20040;-62
2022/10/08 20:40:15;;;;;;;5.80;1.92;;;;;;;11.12;99.39;102216.38;20926979;28;20299;-63
2022/10/08 20:50:37;;;;;;;9.93;2.30;;;;;;;10.82;100.00;102215.13;20961541;28;20119;-63
2022/10/08 21:01:09;;;;;;;6.23;1.90;;;;;;;10.92;100.00;102226.00;20951488;28;20044;-62
2022/10/08 21:11:34;;;;;;;6.30;1.60;;;;;;;10.70;100.00;102236.53;20947892;28;20286;-62
2022/10/08 21:21:55;;;;;;;5.30;2.03;;;;;;;10.82;100.00;102241.22;20953540;28;20511;-62
2022/10/08 21:32:17;;;;;;;9.37;1.80;;;;;;;10.66;100.00;102234.94;20951030;28;20049;-63
2022/10/08 21:42:38;;;;;;;9.67;2.00;;;;;;;10.74;100.00;102232.00;20962898;28;20110;-63
2022/10/08 21:53:00;;;;;;;10.13;2.05;;;;;;;10.45;100.00;102236.78;20970485;28;20098;-63
2022/10/08 22:03:22;;;;;;;8.30;2.10;;;;;;;10.51;100.00;102249.53;20968197;28;20087;-63
2022/10/08 22:13:43;;;;;;;;;;;;;;;10.24;100.00;102250.69;20974630;28;20059;-60
2022/10/08 22:24:05;;;;;;;8.47;2.27;;;;;;;10.25;100.00;102257.59;20982139;28;19974;-62
2022/10/08 22:34:26;;;;;;;9.18;1.80;;;;;;;10.11;100.00;102260.75;20965174;28;20041;-61
2022/10/08 22:44:48;;;;;;;10.60;1.70;;;;;;;9.93;100.00;102255.38;20973453;28;20045;-63
2022/10/08 22:55:10;;;;;;;9.43;1.77;;;;;;;9.93;100.00;102255.38;20969083;28;20049;-63
2022/10/08 23:05:32;;;;;;;11.35;1.92;;;;;;;9.70;100.00;102263.25;20964745;28;20531;-63
2022/10/08 23:16:08;;;;;;;6.80;1.57;;;;;;;9.66;100.00;102259.03;20973420;28;20468;-63
2022/10/08 23:26:30;;;;;;;9.43;2.40;;;;;;;9.71;100.00;102267.53;20996412;28;20037;-63
2022/10/08 23:36:51;;;;;;;13.67;1.93;;;;;;;9.46;100.00;102274.53;20966423;28;20040;-61
2022/10/08 23:47:13;;;;;;;5.17;1.73;;;;;;;9.39;100.00;102283.50;20963006;28;20130;-63
2022/10/08 23:57:34;;;;;;;9.33;2.13;;;;;;;9.34;100.00;102279.38;20963760;28;20098;-63
